createdAt,value
2023-10-10T00:00:50.475Z,73.82
2023-10-10T00:03:20.752Z,73.98
2023-10-10T00:05:48.338Z,74.00
2023-10-10T00:08:17.645Z,73.95
2023-10-10T00:10:51.801Z,73.94
2023-10-10T00:13:21.650Z,74.13
2023-10-10T00:15:52.632Z,73.82
2023-10-10T00:18:20.739Z,74.06
2023-10-10T00:21:05.947Z,74.09
2023-10-10T00:23:39.493Z,73.95
2023-10-10T00:26:07.417Z,74.04
2023-10-10T00:28:37.412Z,73.86
2023-10-10T00:31:09.376Z,74.07
2023-10-10T00:33:39.518Z,73.98
2023-10-10T00:36:11.177Z,73.82
2023-10-10T00:38:39.188Z,74.00
2023-10-10T00:41:09.838Z,73.78
2023-10-10T00:43:38.693Z,73.88
2023-10-10T00:46:07.759Z,74.00
2023-10-10T00:48:39.401Z,73.82
2023-10-10T00:51:11.798Z,73.83
2023-10-10T00:53:40.883Z,73.88
2023-10-10T00:56:09.121Z,73.86
2023-10-10T00:58:39.105Z,73.78
2023-10-10T01:01:09.750Z,74.02
2023-10-10T01:03:37.842Z,74.12
2023-10-10T01:06:09.006Z,74.14
2023-10-10T01:08:58.543Z,74.04
2023-10-10T01:11:26.196Z,73.97
2023-10-10T01:13:55.152Z,73.98
2023-10-10T01:16:25.626Z,74.04
2023-10-10T01:18:58.340Z,74.14
2023-10-10T01:21:34.586Z,74.09
2023-10-10T01:24:13.331Z,73.99
2023-10-10T01:26:45.344Z,74.07
2023-10-10T01:29:22.526Z,74.16
2023-10-10T01:31:52.690Z,74.12
2023-10-10T01:34:32.723Z,74.15
2023-10-10T01:37:08.968Z,73.87
2023-10-10T01:39:48.534Z,74.03
2023-10-10T01:42:18.674Z,73.84
2023-10-10T01:44:46.214Z,74.15
2023-10-10T01:47:27.941Z,73.86
2023-10-10T01:49:59.245Z,74.05
2023-10-10T01:52:28.673Z,74.19
2023-10-10T01:54:56.226Z,74.06
2023-10-10T01:57:25.085Z,74.07
2023-10-10T01:59:54.984Z,74.13
2023-10-10T02:02:25.660Z,73.95
2023-10-10T02:04:57.535Z,74.10
2023-10-10T02:07:32.163Z,74.16
2023-10-10T02:10:13.472Z,74.04
2023-10-10T02:12:45.334Z,74.17
2023-10-10T02:15:17.372Z,74.21
2023-10-10T02:17:52.280Z,74.19
2023-10-10T02:20:35.082Z,74.27
2023-10-10T02:23:10.659Z,74.06
2023-10-10T02:25:38.894Z,74.10
2023-10-10T02:28:11.283Z,74.14
2023-10-10T02:30:39.170Z,74.23
2023-10-10T02:33:15.789Z,74.08
2023-10-10T02:35:55.898Z,74.06
2023-10-10T02:38:26.063Z,73.97
2023-10-10T02:40:57.479Z,74.13
2023-10-10T02:43:41.577Z,74.19
2023-10-10T02:46:09.146Z,74.19
2023-10-10T02:48:43.141Z,74.24
2023-10-10T02:51:16.857Z,74.22
2023-10-10T02:53:47.745Z,74.21
2023-10-10T02:56:22.555Z,74.14
2023-10-10T02:58:55.357Z,74.17
2023-10-10T03:01:47.625Z,74.17
2023-10-10T03:04:18.350Z,74.25
2023-10-10T03:06:46.390Z,74.26
2023-10-10T03:09:29.738Z,74.05
2023-10-10T03:12:05.921Z,74.13
2023-10-10T03:14:35.144Z,74.26
2023-10-10T03:17:06.673Z,74.34
2023-10-10T03:19:40.766Z,74.26
2023-10-10T03:22:29.640Z,74.18
2023-10-10T03:25:21.722Z,74.06
2023-10-10T03:27:56.480Z,74.25
2023-10-10T03:30:32.095Z,74.22
2023-10-10T03:33:10.214Z,74.21
2023-10-10T03:36:01.683Z,74.21
2023-10-10T03:38:46.217Z,74.26
2023-10-10T03:41:27.679Z,74.28
2023-10-10T03:44:14.951Z,74.32
2023-10-10T03:47:00.328Z,74.13
2023-10-10T03:49:45.812Z,74.24
2023-10-10T03:52:30.766Z,74.28
2023-10-10T03:55:16.128Z,74.17
2023-10-10T03:58:00.908Z,74.21
2023-10-10T04:00:47.034Z,74.23
2023-10-10T04:03:33.936Z,74.18
2023-10-10T04:06:21.095Z,74.28
2023-10-10T04:09:05.929Z,74.20
2023-10-10T04:11:59.153Z,74.04
2023-10-10T04:14:44.084Z,74.28
2023-10-10T04:17:30.627Z,74.32
2023-10-10T04:20:15.867Z,73.97
2023-10-10T04:23:00.817Z,74.15
2023-10-10T04:25:45.673Z,74.20
2023-10-10T04:28:30.538Z,74.23
2023-10-10T04:31:15.290Z,74.17
2023-10-10T04:34:01.534Z,74.41
2023-10-10T04:36:46.347Z,74.12
2023-10-10T04:39:31.204Z,74.30
2023-10-10T04:42:16.116Z,74.33
2023-10-10T04:45:00.927Z,74.30
2023-10-10T04:47:45.841Z,74.43
2023-10-10T04:50:32.338Z,74.33
2023-10-10T04:53:17.289Z,74.32
2023-10-10T04:56:02.304Z,74.52
2023-10-10T04:58:47.040Z,74.33
2023-10-10T05:01:32.001Z,74.25
2023-10-10T05:04:17.217Z,74.18
2023-10-10T05:07:03.442Z,74.32
2023-10-10T05:09:48.249Z,74.17
2023-10-10T05:12:33.180Z,74.23
2023-10-10T05:15:18.081Z,74.33
2023-10-10T05:18:03.158Z,74.32
2023-10-10T05:20:48.287Z,74.20
2023-10-10T05:23:32.535Z,74.17
2023-10-10T05:26:00.896Z,74.42
2023-10-10T05:28:31.603Z,74.43
2023-10-10T05:30:59.266Z,74.36
2023-10-10T05:33:27.661Z,74.30
2023-10-10T05:35:58.747Z,74.35
2023-10-10T05:38:27.702Z,74.32
2023-10-10T05:40:59.471Z,74.42
2023-10-10T05:43:34.863Z,74.33
2023-10-10T05:46:02.618Z,74.41
2023-10-10T05:48:32.285Z,74.25
2023-10-10T05:50:59.992Z,74.46
2023-10-10T05:53:34.149Z,74.44
2023-10-10T05:56:13.686Z,74.24
2023-10-10T05:58:44.058Z,74.25
2023-10-10T06:01:13.578Z,74.44
2023-10-10T06:03:42.362Z,74.30
2023-10-10T06:06:13.178Z,74.23
2023-10-10T06:08:44.168Z,74.52
2023-10-10T06:11:13.920Z,74.42
2023-10-10T06:13:41.614Z,74.42
2023-10-10T06:16:10.151Z,74.25
2023-10-10T06:18:37.726Z,74.18
2023-10-10T06:21:10.329Z,74.31
2023-10-10T06:23:38.248Z,74.46
2023-10-10T06:26:08.009Z,74.27
2023-10-10T06:28:41.991Z,74.47
2023-10-10T06:31:11.730Z,74.30
2023-10-10T06:33:42.039Z,74.61
2023-10-10T06:36:28.319Z,74.41
2023-10-10T06:39:19.510Z,74.33
2023-10-10T06:41:51.381Z,74.45
2023-10-10T06:44:33.144Z,74.46
2023-10-10T06:47:01.741Z,74.48
2023-10-10T06:49:44.524Z,74.40
2023-10-10T06:52:19.235Z,74.40
2023-10-10T06:54:54.742Z,74.63
2023-10-10T06:57:37.145Z,74.52
2023-10-10T07:00:31.037Z,74.52
2023-10-10T07:02:59.230Z,74.55
2023-10-10T07:05:28.897Z,74.57
2023-10-10T07:07:59.802Z,74.38
2023-10-10T07:10:28.362Z,74.46
2023-10-10T07:12:59.410Z,74.53
2023-10-10T07:15:27.220Z,74.37
2023-10-10T07:18:06.152Z,74.62
2023-10-10T07:20:51.459Z,74.44
2023-10-10T07:23:21.883Z,74.32
2023-10-10T07:26:00.759Z,74.40
2023-10-10T07:28:30.344Z,74.60
2023-10-10T07:30:57.896Z,74.60
2023-10-10T07:33:30.777Z,74.63
2023-10-10T07:35:58.391Z,74.65
2023-10-10T07:38:29.107Z,74.52
2023-10-10T07:40:56.763Z,74.42
2023-10-10T07:43:28.569Z,74.65
2023-10-10T07:45:57.477Z,74.44
2023-10-10T07:48:40.432Z,74.54
2023-10-10T07:51:10.573Z,74.60
2023-10-10T07:53:45.098Z,74.64
2023-10-10T07:56:12.784Z,74.71
2023-10-10T07:58:53.778Z,74.76
2023-10-10T08:01:24.537Z,74.56
2023-10-10T08:03:52.135Z,74.72
2023-10-10T08:06:23.085Z,74.77
2023-10-10T08:09:10.229Z,74.51
2023-10-10T08:11:38.059Z,74.57
2023-10-10T08:14:08.332Z,74.58
2023-10-10T08:16:37.862Z,74.75
2023-10-10T08:19:09.461Z,74.78
2023-10-10T08:21:39.530Z,74.64
2023-10-10T08:24:09.172Z,74.82
2023-10-10T08:26:43.125Z,74.80
2023-10-10T08:29:11.519Z,74.83
2023-10-10T08:31:41.446Z,74.77
2023-10-10T08:34:10.436Z,74.79
2023-10-10T08:36:39.388Z,74.68
2023-10-10T08:39:26.631Z,74.75
2023-10-10T08:41:55.019Z,74.62
2023-10-10T08:44:24.736Z,74.47
2023-10-10T08:46:56.722Z,74.70
2023-10-10T08:49:25.463Z,74.52
2023-10-10T08:51:54.197Z,74.80
2023-10-10T08:54:22.242Z,74.76
2023-10-10T08:57:01.027Z,74.85
2023-10-10T08:59:30.700Z,74.87
2023-10-10T09:02:09.937Z,74.92
2023-10-10T09:04:37.537Z,74.88
2023-10-10T09:07:09.845Z,74.82
2023-10-10T09:09:39.085Z,74.92
2023-10-10T09:12:13.886Z,74.93
2023-10-10T09:14:42.514Z,74.83
2023-10-10T09:17:12.747Z,74.83
2023-10-10T09:19:44.062Z,74.80
2023-10-10T09:22:26.949Z,74.53
2023-10-10T09:24:56.795Z,74.31
2023-10-10T09:27:28.591Z,73.75
2023-10-10T09:29:57.552Z,73.23
2023-10-10T09:32:37.571Z,73.86
2023-10-10T09:35:08.048Z,73.49
2023-10-10T09:37:39.725Z,73.32
2023-10-10T09:40:16.820Z,73.19
2023-10-10T09:42:54.922Z,73.37
2023-10-10T09:45:37.172Z,73.48
2023-10-10T09:48:07.742Z,73.46
2023-10-10T09:50:46.803Z,73.81
2023-10-10T09:53:22.579Z,73.61
2023-10-10T09:55:54.760Z,73.41
2023-10-10T09:58:28.100Z,73.37
2023-10-10T10:01:04.211Z,73.27
2023-10-10T10:03:51.143Z,73.38
2023-10-10T10:06:38.499Z,73.26
2023-10-10T10:09:39.699Z,73.59
2023-10-10T10:12:20.741Z,73.82
2023-10-10T10:14:55.041Z,73.79
2023-10-10T10:17:26.404Z,73.67
2023-10-10T10:20:19.686Z,74.13
2023-10-10T10:22:48.510Z,73.67
2023-10-10T10:25:26.244Z,74.03
2023-10-10T10:28:01.516Z,73.48
2023-10-10T10:30:47.874Z,73.24
2023-10-10T10:33:16.520Z,72.95
2023-10-10T10:36:15.554Z,72.06
2023-10-10T10:39:04.945Z,71.68
2023-10-10T10:41:44.260Z,71.62
2023-10-10T10:44:14.613Z,72.06
2023-10-10T10:46:49.114Z,71.49
2023-10-10T10:49:23.246Z,71.66
2023-10-10T10:52:12.127Z,71.84
2023-10-10T10:54:42.453Z,71.43
2023-10-10T10:57:43.264Z,71.40
2023-10-10T11:00:27.002Z,71.35
2023-10-10T11:03:01.014Z,70.85
2023-10-10T11:05:29.288Z,70.11
2023-10-10T11:08:11.915Z,69.56
2023-10-10T11:10:46.436Z,69.42
2023-10-10T11:13:15.252Z,69.55
2023-10-10T11:15:42.809Z,69.23
2023-10-10T11:18:11.208Z,69.14
2023-10-10T11:20:52.992Z,69.09
2023-10-10T11:23:24.587Z,69.02
2023-10-10T11:26:01.636Z,69.58
2023-10-10T11:28:38.624Z,69.64
2023-10-10T11:31:08.748Z,68.87
2023-10-10T11:33:50.079Z,68.89
2023-10-10T11:36:30.486Z,69.09
2023-10-10T11:39:17.436Z,68.71
2023-10-10T11:41:47.874Z,69.22
2023-10-10T11:44:19.739Z,69.42
2023-10-10T11:46:48.136Z,69.04
2023-10-10T11:49:17.208Z,68.97
2023-10-10T11:51:44.703Z,68.41
2023-10-10T11:54:13.537Z,68.13
2023-10-10T11:56:41.096Z,68.19
2023-10-10T11:59:12.165Z,68.18
2023-10-10T12:02:08.587Z,68.27
2023-10-10T12:04:38.761Z,72.92
2023-10-10T12:07:07.410Z,70.89
2023-10-10T12:09:40.007Z,70.01
2023-10-10T12:12:07.526Z,70.32
2023-10-10T12:14:35.068Z,70.50
2023-10-10T12:17:06.999Z,70.51
2023-10-10T12:19:38.361Z,70.20
2023-10-10T12:22:11.822Z,69.19
2023-10-10T12:24:41.650Z,68.74
2023-10-10T12:27:09.277Z,68.37
2023-10-10T12:29:40.777Z,67.86
2023-10-10T12:32:16.916Z,68.00
2023-10-10T12:34:45.001Z,67.99
2023-10-10T12:37:16.463Z,67.81
2023-10-10T12:39:45.547Z,67.71
2023-10-10T12:42:13.575Z,68.23
2023-10-10T12:44:41.126Z,68.34
2023-10-10T12:47:08.900Z,68.60
2023-10-10T12:49:45.256Z,68.43
2023-10-10T12:52:13.861Z,68.48
2023-10-10T12:54:43.310Z,68.51
2023-10-10T12:57:15.707Z,68.43
2023-10-10T12:59:47.443Z,68.44
2023-10-10T13:02:17.650Z,68.14
2023-10-10T13:04:48.084Z,68.29
2023-10-10T13:07:17.388Z,67.97
2023-10-10T13:09:47.866Z,68.88
2023-10-10T13:12:34.035Z,68.63
2023-10-10T13:15:15.685Z,68.28
2023-10-10T13:17:54.367Z,68.31
2023-10-10T13:20:23.631Z,68.03
2023-10-10T13:22:52.479Z,68.36
2023-10-10T13:25:21.226Z,68.27
2023-10-10T13:27:53.563Z,68.48
2023-10-10T13:30:21.523Z,68.42
2023-10-10T13:32:49.080Z,67.81
2023-10-10T13:35:16.660Z,67.84
2023-10-10T13:37:45.028Z,67.95
2023-10-10T13:40:22.126Z,67.97
2023-10-10T13:42:51.241Z,67.90
2023-10-10T13:45:23.485Z,67.99
2023-10-10T13:47:51.347Z,68.04
2023-10-10T13:50:32.973Z,67.49
2023-10-10T13:53:01.396Z,67.08
2023-10-10T13:55:33.521Z,66.89
2023-10-10T13:58:02.301Z,67.09
2023-10-10T14:00:34.859Z,67.22
2023-10-10T14:03:05.150Z,67.50
2023-10-10T14:05:35.169Z,67.50
2023-10-10T14:08:04.009Z,67.46
2023-10-10T14:10:38.224Z,67.61
2023-10-10T14:13:20.904Z,67.80
2023-10-10T14:15:58.517Z,67.67
2023-10-10T14:18:27.455Z,67.49
2023-10-10T14:20:55.458Z,67.77
2023-10-10T14:23:24.009Z,67.62
2023-10-10T14:25:51.756Z,68.04
2023-10-10T14:28:21.542Z,67.72
2023-10-10T14:30:51.546Z,67.90
2023-10-10T14:33:19.465Z,68.05
2023-10-10T14:35:47.070Z,68.06
2023-10-10T14:38:16.814Z,68.25
2023-10-10T14:40:44.609Z,68.34
2023-10-10T14:43:12.741Z,68.19
2023-10-10T14:45:44.081Z,68.21
2023-10-10T14:48:16.131Z,68.31
2023-10-10T14:50:44.129Z,68.35
2023-10-10T14:53:11.712Z,68.14
2023-10-10T14:55:41.058Z,68.43
2023-10-10T14:58:10.341Z,68.47
2023-10-10T15:00:43.673Z,68.32
2023-10-10T15:03:17.162Z,68.37
2023-10-10T15:05:51.874Z,68.29
2023-10-10T15:08:20.103Z,68.24
2023-10-10T15:10:48.137Z,68.24
2023-10-10T15:13:17.309Z,68.43
2023-10-10T15:15:47.691Z,68.25
2023-10-10T15:18:17.128Z,68.53
2023-10-10T15:20:47.903Z,68.58
2023-10-10T15:23:19.918Z,68.31
2023-10-10T15:25:48.354Z,68.45
2023-10-10T15:28:17.597Z,68.52
2023-10-10T15:30:46.096Z,68.27
2023-10-10T15:33:18.744Z,68.46
2023-10-10T15:35:51.367Z,68.39
2023-10-10T15:38:18.931Z,68.72
2023-10-10T15:40:46.383Z,68.43
2023-10-10T15:43:29.965Z,68.82
2023-10-10T15:45:59.669Z,70.36
2023-10-10T15:48:27.218Z,70.10
2023-10-10T15:50:58.471Z,69.91
2023-10-10T15:53:27.334Z,70.12
2023-10-10T15:56:18.602Z,70.44
2023-10-10T15:58:51.094Z,70.45
2023-10-10T16:01:23.178Z,70.59
2023-10-10T16:03:53.213Z,70.63
2023-10-10T16:06:23.565Z,70.94
2023-10-10T16:08:52.379Z,70.63
2023-10-10T16:11:20.308Z,70.59
2023-10-10T16:13:49.577Z,70.69
2023-10-10T16:16:19.453Z,70.38
2023-10-10T16:18:47.934Z,69.96
2023-10-10T16:21:16.280Z,69.90
2023-10-10T16:23:45.919Z,69.22
2023-10-10T16:26:15.911Z,68.66
2023-10-10T16:28:43.511Z,68.56
2023-10-10T16:31:12.483Z,68.24
2023-10-10T16:33:40.399Z,68.24
2023-10-10T16:36:09.040Z,68.35
2023-10-10T16:38:37.973Z,68.29
2023-10-10T16:41:08.866Z,68.73
2023-10-10T16:43:54.025Z,68.44
2023-10-10T16:46:26.813Z,68.30
2023-10-10T16:48:58.050Z,68.47
2023-10-10T16:51:27.734Z,68.85
2023-10-10T16:53:56.488Z,68.95
2023-10-10T16:56:26.046Z,68.95
2023-10-10T16:58:53.580Z,68.92
2023-10-10T17:01:23.358Z,69.01
2023-10-10T17:03:55.487Z,68.89
2023-10-10T17:06:24.826Z,69.03
2023-10-10T17:08:54.141Z,69.04
2023-10-10T17:11:22.363Z,69.01
2023-10-10T17:13:52.153Z,68.99
2023-10-10T17:16:26.726Z,69.02
2023-10-10T17:18:57.021Z,69.16
2023-10-10T17:21:26.524Z,69.43
2023-10-10T17:23:56.336Z,69.40
2023-10-10T17:26:25.126Z,69.36
2023-10-10T17:28:55.437Z,69.59
2023-10-10T17:31:24.205Z,69.83
2023-10-10T17:33:51.923Z,69.65
2023-10-10T17:36:19.631Z,69.65
2023-10-10T17:38:48.297Z,69.52
2023-10-10T17:41:16.222Z,69.65
2023-10-10T17:43:43.819Z,69.66
2023-10-10T17:46:15.829Z,69.69
2023-10-10T17:48:44.347Z,69.88
2023-10-10T17:51:15.721Z,70.03
2023-10-10T17:53:43.414Z,69.96
2023-10-10T17:56:13.581Z,69.97
2023-10-10T17:58:41.108Z,70.00
2023-10-10T18:01:10.678Z,70.21
2023-10-10T18:03:40.872Z,70.23
2023-10-10T18:06:14.359Z,70.14
2023-10-10T18:08:42.632Z,70.02
2023-10-10T18:11:10.173Z,70.18
2023-10-10T18:13:38.568Z,70.31
2023-10-10T18:16:10.491Z,70.06
2023-10-10T18:18:42.820Z,70.25
2023-10-10T18:21:10.945Z,70.06
2023-10-10T18:23:38.852Z,70.29
2023-10-10T18:26:12.132Z,70.37
2023-10-10T18:28:40.624Z,70.27
2023-10-10T18:31:13.631Z,70.25
2023-10-10T18:33:43.439Z,70.23
2023-10-10T18:36:11.505Z,70.39
2023-10-10T18:38:39.395Z,70.44
2023-10-10T18:41:07.149Z,70.26
2023-10-10T18:43:34.642Z,70.27
2023-10-10T18:46:02.281Z,70.45
2023-10-10T18:48:34.285Z,70.49
2023-10-10T18:51:04.068Z,70.25
2023-10-10T18:53:31.638Z,70.50
2023-10-10T18:55:59.856Z,70.46
2023-10-10T18:58:28.196Z,70.47
2023-10-10T19:00:56.270Z,70.38
2023-10-10T19:03:24.362Z,70.30
2023-10-10T19:05:52.728Z,70.20
2023-10-10T19:08:23.624Z,70.48
2023-10-10T19:10:52.783Z,70.52
2023-10-10T19:13:20.577Z,70.53
2023-10-10T19:15:49.213Z,70.50
2023-10-10T19:18:17.951Z,70.67
2023-10-10T19:20:47.555Z,70.62
2023-10-10T19:23:16.196Z,70.69
2023-10-10T19:25:48.325Z,70.60
2023-10-10T19:28:17.043Z,70.72
2023-10-10T19:30:44.750Z,70.62
2023-10-10T19:33:15.584Z,70.73
2023-10-10T19:35:45.628Z,70.71
2023-10-10T19:38:13.469Z,70.86
2023-10-10T19:40:44.622Z,70.97
2023-10-10T19:43:14.801Z,70.95
2023-10-10T19:45:42.597Z,70.80
2023-10-10T19:48:16.875Z,70.79
2023-10-10T19:50:45.785Z,70.94
2023-10-10T19:53:13.862Z,70.65
